Time;durP1;ratioP1;P1;durP2;ratioP2;P2;SDS_P1;SDS_P2;PMS_P1;PMS_P2;Temp;Humidity;BMP_temperature;BMP_pressure;BME280_temperature;BME280_humidity;BME280_pressure;Samples;Min_cycle;Max_cycle;Signal;HPM_P1;HPM_P2
2024/04/15 00:01:03;;;;;;;21.87;20.80;;;;;;;;;;5468248;26;20482;-69
2024/04/15 00:03:35;;;;;;;22.97;21.87;;;;;;;;;;5452128;25;20596;-68
2024/04/15 00:06:01;;;;;;;22.03;20.93;;;;;;;;;;5455270;26;21253;-68
2024/04/15 00:08:30;;;;;;;23.43;22.30;;;;;;;;;;5450268;26;20581;-68
2024/04/15 00:10:56;;;;;;;23.47;22.37;;;;;;;;;;5451764;26;20570;-69
2024/04/15 00:13:25;;;;;;;23.57;22.47;;;;;;;;;;5449139;26;20472;-69
2024/04/15 00:15:56;;;;;;;23.17;22.07;;;;;;;;;;5451258;25;21001;-67
2024/04/15 00:18:25;;;;;;;23.73;22.63;;;;;;;;;;5453601;25;20863;-68
2024/04/15 00:20:59;;;;;;;23.03;21.93;;;;;;;;;;5453279;25;21016;-68
2024/04/15 00:23:29;;;;;;;23.93;22.83;;;;;;;;;;5453302;26;20486;-68
2024/04/15 00:25:56;;;;;;;23.33;22.23;;;;;;;;;;5453593;26;21217;-66
2024/04/15 00:28:25;;;;;;;23.93;22.77;;;;;;;;;;5449715;26;20518;-68
2024/04/15 00:30:51;;;;;;;25.23;24.03;;;;;;;;;;5455893;26;20545;-69
2024/04/15 00:33:20;;;;;;;24.17;23.07;;;;;;;;;;5453230;26;21129;-67
2024/04/15 00:35:46;;;;;;;24.37;23.17;;;;;;;;;;5449989;26;20535;-68
2024/04/15 00:38:19;;;;;;;25.03;23.83;;;;;;;;;;5453165;26;21018;-67
2024/04/15 00:40:45;;;;;;;23.57;22.47;;;;;;;;;;5455304;26;20564;-68
2024/04/15 00:43:14;;;;;;;25.00;23.80;;;;;;;;;;5452554;26;20482;-67
2024/04/15 00:45:40;;;;;;;24.00;22.80;;;;;;;;;;5453013;26;23129;-67
2024/04/15 00:48:10;;;;;;;24.40;23.20;;;;;;;;;;5453593;26;20857;-68
2024/04/15 00:50:38;;;;;;;24.03;22.83;;;;;;;;;;5452148;26;20517;-67
2024/04/15 00:53:09;;;;;;;23.43;22.33;;;;;;;;;;5453924;26;20590;-68
2024/04/15 00:55:38;;;;;;;24.60;23.40;;;;;;;;;;5452972;26;20574;-68
2024/04/15 00:58:07;;;;;;;25.50;24.20;;;;;;;;;;5454222;26;20491;-68
2024/04/15 01:00:35;;;;;;;25.90;24.60;;;;;;;;;;5486753;26;20483;-68
2024/04/15 01:03:04;;;;;;;26.60;25.20;;;;;;;;;;5520216;26;20474;-68
2024/04/15 01:05:30;;;;;;;25.73;24.43;;;;;;;;;;5516389;26;20519;-67
2024/04/15 01:07:59;;;;;;;26.07;24.77;;;;;;;;;;5511577;25;20581;-68
2024/04/15 01:10:25;;;;;;;26.33;24.93;;;;;;;;;;5513561;25;21073;-68
2024/04/15 01:12:58;;;;;;;27.73;26.23;;;;;;;;;;5520268;26;21015;-67
2024/04/15 01:15:24;;;;;;;26.83;25.43;;;;;;;;;;5501415;26;20586;-67
2024/04/15 01:17:53;;;;;;;27.53;26.03;;;;;;;;;;5517256;25;20534;-67
2024/04/15 01:20:23;;;;;;;27.93;26.53;;;;;;;;;;5503483;26;20905;-67
2024/04/15 01:22:58;;;;;;;28.77;27.27;;;;;;;;;;5506297;25;20483;-67
2024/04/15 01:25:27;;;;;;;29.03;27.57;;;;;;;;;;5520134;26;20469;-67
2024/04/15 01:27:57;;;;;;;28.33;26.83;;;;;;;;;;5506570;26;20531;-67
2024/04/15 01:30:23;;;;;;;28.40;26.90;;;;;;;;;;5505920;25;20585;-67
2024/04/15 01:32:52;;;;;;;27.57;26.17;;;;;;;;;;5520809;26;20462;-67
2024/04/15 01:35:20;;;;;;;28.87;27.37;;;;;;;;;;5510059;26;20845;-67
2024/04/15 01:37:50;;;;;;;27.37;25.97;;;;;;;;;;5504511;26;20979;-68
2024/04/15 01:40:17;;;;;;;27.10;25.80;;;;;;;;;;5515515;26;20521;-67
2024/04/15 01:42:49;;;;;;;27.83;26.53;;;;;;;;;;5503124;26;20539;-67
2024/04/15 01:45:15;;;;;;;26.47;25.27;;;;;;;;;;5501580;26;20589;-67
2024/04/15 01:47:46;;;;;;;25.70;24.60;;;;;;;;;;5510721;25;20532;-67
2024/04/15 01:50:13;;;;;;;27.17;25.97;;;;;;;;;;5514115;25;20560;-67
2024/04/15 01:52:41;;;;;;;27.27;26.07;;;;;;;;;;5513259;26;20856;-67
2024/04/15 01:55:08;;;;;;;28.23;26.93;;;;;;;;;;5498008;26;20848;-67
2024/04/15 01:57:36;;;;;;;26.43;25.33;;;;;;;;;;5514835;26;20803;-67
2024/04/15 02:00:06;;;;;;;26.80;25.70;;;;;;;;;;5512134;26;20521;-66
2024/04/15 02:02:36;;;;;;;27.90;26.70;;;;;;;;;;5515479;26;20544;-66
2024/04/15 02:05:02;;;;;;;26.03;24.93;;;;;;;;;;5510714;26;20814;-66
2024/04/15 02:07:31;;;;;;;26.33;25.23;;;;;;;;;;5507988;26;20918;-67
2024/04/15 02:09:57;;;;;;;27.87;26.70;;;;;;;;;;5500195;25;20517;-67
2024/04/15 02:12:26;;;;;;;27.13;26.00;;;;;;;;;;5512400;26;20472;-67
2024/04/15 02:14:53;;;;;;;29.53;28.27;;;;;;;;;;5515990;26;20465;-67
2024/04/15 02:17:24;;;;;;;26.43;25.33;;;;;;;;;;5518993;26;20477;-67
2024/04/15 02:19:50;;;;;;;27.13;26.03;;;;;;;;;;5509533;26;20541;-67
2024/04/15 02:22:20;;;;;;;27.47;26.33;;;;;;;;;;5506730;25;20551;-67
2024/04/15 02:24:46;;;;;;;27.60;26.50;;;;;;;;;;5503336;26;20462;-66
2024/04/15 02:27:15;;;;;;;26.07;25.07;;;;;;;;;;5520158;25;20468;-67
2024/04/15 02:29:42;;;;;;;27.43;26.33;;;;;;;;;;5508610;26;21082;-67
2024/04/15 02:32:12;;;;;;;27.93;26.83;;;;;;;;;;5499200;26;20461;-67
2024/04/15 02:34:42;;;;;;;26.33;25.23;;;;;;;;;;5501192;26;21070;-69
2024/04/15 02:37:11;;;;;;;27.67;26.57;;;;;;;;;;5499267;26;20464;-67
2024/04/15 02:39:38;;;;;;;27.87;26.77;;;;;;;;;;5505464;25;20541;-67
2024/04/15 02:42:08;;;;;;;28.97;27.83;;;;;;;;;;5500883;26;20911;-67
2024/04/15 02:44:35;;;;;;;28.27;27.07;;;;;;;;;;5509647;26;20623;-67
2024/04/15 02:47:04;;;;;;;27.60;26.50;;;;;;;;;;5519691;26;20524;-67
2024/04/15 02:49:30;;;;;;;27.80;26.70;;;;;;;;;;5499475;26;20481;-67
2024/04/15 02:52:02;;;;;;;27.93;26.83;;;;;;;;;;5504691;26;20455;-67
2024/04/15 02:54:28;;;;;;;28.13;27.03;;;;;;;;;;5514423;26;20532;-68
2024/04/15 02:56:57;;;;;;;27.33;26.23;;;;;;;;;;5500554;26;20473;-67
2024/04/15 02:59:23;;;;;;;26.53;25.43;;;;;;;;;;5503751;26;20513;-67
2024/04/15 03:01:52;;;;;;;25.93;24.93;;;;;;;;;;5506200;25;20484;-67
2024/04/15 03:04:19;;;;;;;27.90;26.80;;;;;;;;;;5501555;26;20477;-67
2024/04/15 03:06:48;;;;;;;27.53;26.43;;;;;;;;;;5504145;25;21002;-67
2024/04/15 03:09:21;;;;;;;27.50;26.37;;;;;;;;;;5502889;26;20468;-68
2024/04/15 03:11:49;;;;;;;26.40;25.30;;;;;;;;;;5492117;26;20526;-67
2024/04/15 03:14:17;;;;;;;28.00;26.80;;;;;;;;;;5513370;26;21266;-67
2024/04/15 03:16:46;;;;;;;25.43;24.43;;;;;;;;;;5512060;26;20544;-67
2024/04/15 03:19:12;;;;;;;27.97;26.77;;;;;;;;;;5515169;26;21384;-67
2024/04/15 03:21:42;;;;;;;25.87;24.77;;;;;;;;;;5512802;26;20867;-68
2024/04/15 03:24:08;;;;;;;27.60;26.50;;;;;;;;;;5512699;26;20516;-67
2024/04/15 03:26:39;;;;;;;27.40;26.30;;;;;;;;;;5492612;26;20606;-67
2024/04/15 03:29:07;;;;;;;26.63;25.53;;;;;;;;;;5501356;26;20921;-67
2024/04/15 03:31:36;;;;;;;26.60;25.50;;;;;;;;;;5513993;25;20469;-68
2024/04/15 03:34:03;;;;;;;27.33;26.23;;;;;;;;;;5497951;26;20458;-67
2024/04/15 03:36:32;;;;;;;25.97;24.87;;;;;;;;;;5495582;26;20537;-67
2024/04/15 03:39:01;;;;;;;28.20;27.00;;;;;;;;;;5517348;26;20473;-67
2024/04/15 03:41:30;;;;;;;27.23;26.13;;;;;;;;;;5514846;26;20523;-66
2024/04/15 03:44:01;;;;;;;27.83;26.70;;;;;;;;;;5496221;25;20496;-67
2024/04/15 03:46:28;;;;;;;27.53;26.43;;;;;;;;;;5500749;26;20840;-66
2024/04/15 03:48:57;;;;;;;28.40;27.20;;;;;;;;;;5511853;26;20592;-67
2024/04/15 03:51:23;;;;;;;28.70;27.50;;;;;;;;;;5501093;25;20464;-67
2024/04/15 03:53:52;;;;;;;29.07;27.87;;;;;;;;;;5497760;26;20523;-67
2024/04/15 03:56:18;;;;;;;30.63;29.33;;;;;;;;;;5493900;26;20470;-67
2024/04/15 03:58:47;;;;;;;30.47;29.17;;;;;;;;;;5503921;26;20462;-66
2024/04/15 04:01:16;;;;;;;31.90;30.60;;;;;;;;;;5499422;26;20525;-67
2024/04/15 04:03:45;;;;;;;28.70;27.50;;;;;;;;;;5494124;25;20527;-66
2024/04/15 04:06:12;;;;;;;29.03;27.83;;;;;;;;;;5505765;25;20528;-67
2024/04/15 04:08:42;;;;;;;28.33;27.13;;;;;;;;;;5501192;26;20542;-67
2024/04/15 04:11:08;;;;;;;28.53;27.33;;;;;;;;;;5519845;25;20990;-66
2024/04/15 04:13:37;;;;;;;28.97;27.73;;;;;;;;;;5506099;26;21023;-66
2024/04/15 04:16:04;;;;;;;27.23;26.03;;;;;;;;;;5507384;25;20472;-66
2024/04/15 04:18:36;;;;;;;29.90;28.60;;;;;;;;;;5504903;26;20832;-67
2024/04/15 04:21:12;;;;;;;28.43;27.23;;;;;;;;;;5508773;25;20480;-66
2024/04/15 04:23:38;;;;;;;28.63;27.43;;;;;;;;;;5501641;26;20531;-66
2024/04/15 04:26:07;;;;;;;28.47;27.27;;;;;;;;;;5521210;25;20542;-65
2024/04/15 04:28:33;;;;;;;29.77;28.47;;;;;;;;;;5504799;26;20923;-65
2024/04/15 04:31:04;;;;;;;30.37;29.07;;;;;;;;;;5515598;26;20592;-66
2024/04/15 04:33:31;;;;;;;29.97;28.67;;;;;;;;;;5515930;26;20528;-66
2024/04/15 04:36:03;;;;;;;28.23;27.03;;;;;;;;;;5512423;26;21112;-66
2024/04/15 04:38:29;;;;;;;29.47;28.17;;;;;;;;;;5512700;26;20483;-67
2024/04/15 04:40:59;;;;;;;30.57;29.17;;;;;;;;;;5490281;25;20552;-66
2024/04/15 04:43:25;;;;;;;28.00;26.77;;;;;;;;;;5503724;25;20917;-66
2024/04/15 04:45:54;;;;;;;28.70;27.40;;;;;;;;;;5526361;25;20997;-66
2024/04/15 04:48:21;;;;;;;28.70;27.40;;;;;;;;;;5505646;25;20603;-65
2024/04/15 04:50:51;;;;;;;29.07;27.77;;;;;;;;;;5504944;25;20468;-67
2024/04/15 04:53:20;;;;;;;26.80;25.60;;;;;;;;;;5520086;25;20460;-67
2024/04/15 04:55:51;;;;;;;25.50;24.40;;;;;;;;;;5508557;26;21094;-66
2024/04/15 04:58:18;;;;;;;28.30;27.00;;;;;;;;;;5501643;26;20517;-67
2024/04/15 05:00:47;;;;;;;26.50;25.30;;;;;;;;;;5503092;26;20470;-67
2024/04/15 05:03:14;;;;;;;27.57;26.37;;;;;;;;;;5496770;25;20553;-65
2024/04/15 05:05:43;;;;;;;25.40;24.30;;;;;;;;;;5513365;25;20536;-66
2024/04/15 05:08:09;;;;;;;26.03;24.83;;;;;;;;;;5512259;26;20665;-68
2024/04/15 05:10:41;;;;;;;27.47;26.27;;;;;;;;;;5500209;25;20725;-66
2024/04/15 05:13:07;;;;;;;26.60;25.40;;;;;;;;;;5498387;25;20585;-68
2024/04/15 05:15:37;;;;;;;26.70;25.40;;;;;;;;;;5509662;26;20458;-67
2024/04/15 05:18:03;;;;;;;26.97;25.70;;;;;;;;;;5507997;26;20473;-67
2024/04/15 05:20:32;;;;;;;26.57;25.37;;;;;;;;;;5496954;26;21045;-67
2024/04/15 05:22:59;;;;;;;26.50;25.30;;;;;;;;;;5511419;26;20575;-67
2024/04/15 05:25:28;;;;;;;25.97;24.77;;;;;;;;;;5506738;25;21030;-67
2024/04/15 05:27:57;;;;;;;27.13;25.90;;;;;;;;;;5497676;26;20622;-67
2024/04/15 05:30:26;;;;;;;25.23;24.03;;;;;;;;;;5498712;25;20464;-66
2024/04/15 05:32:53;;;;;;;25.30;24.10;;;;;;;;;;5502027;26;20619;-67
2024/04/15 05:35:22;;;;;;;26.20;25.00;;;;;;;;;;5502579;26;20554;-67
2024/04/15 05:37:50;;;;;;;25.20;24.10;;;;;;;;;;5508287;26;20895;-68
2024/04/15 05:40:17;;;;;;;24.80;23.60;;;;;;;;;;5503902;26;20818;-67
2024/04/15 05:42:46;;;;;;;25.17;23.97;;;;;;;;;;5487285;26;21359;-67
2024/04/15 05:45:15;;;;;;;23.70;22.60;;;;;;;;;;5502113;25;20515;-66
2024/04/15 05:47:44;;;;;;;24.90;23.70;;;;;;;;;;5513598;26;20585;-67
2024/04/15 05:50:10;;;;;;;23.20;22.10;;;;;;;;;;5512822;26;21637;-67
2024/04/15 05:52:39;;;;;;;24.47;23.37;;;;;;;;;;5504261;25;20474;-67
2024/04/15 05:55:05;;;;;;;22.30;21.30;;;;;;;;;;5502608;26;20558;-67
2024/04/15 05:57:34;;;;;;;23.63;22.53;;;;;;;;;;5497210;26;20556;-67
2024/04/15 06:00:02;;;;;;;22.07;21.07;;;;;;;;;;5503164;26;20544;-67
2024/04/15 06:02:34;;;;;;;22.37;21.37;;;;;;;;;;5497521;26;20558;-67
2024/04/15 06:05:01;;;;;;;21.67;20.67;;;;;;;;;;5500574;26;20520;-67
2024/04/15 06:07:30;;;;;;;21.17;20.27;;;;;;;;;;5489460;26;20546;-66
2024/04/15 06:09:56;;;;;;;21.60;20.60;;;;;;;;;;5499548;26;20519;-68
2024/04/15 06:12:28;;;;;;;21.07;20.17;;;;;;;;;;5506503;25;20520;-67
2024/04/15 06:14:55;;;;;;;20.77;19.87;;;;;;;;;;5497292;26;20897;-67
2024/04/15 06:17:24;;;;;;;20.40;19.50;;;;;;;;;;5507284;26;20545;-68
2024/04/15 06:19:53;;;;;;;20.23;19.33;;;;;;;;;;5511926;26;21196;-67
2024/04/15 06:22:23;;;;;;;20.30;19.40;;;;;;;;;;5498068;25;20595;-67
2024/04/15 06:24:49;;;;;;;20.50;19.60;;;;;;;;;;5495369;26;20843;-68
2024/04/15 06:27:19;;;;;;;20.30;19.40;;;;;;;;;;5507248;26;20529;-67
2024/04/15 06:29:45;;;;;;;19.10;18.30;;;;;;;;;;5506703;26;20596;-67
2024/04/15 06:32:14;;;;;;;19.60;18.80;;;;;;;;;;5495982;26;20574;-68
2024/04/15 06:34:41;;;;;;;19.67;18.87;;;;;;;;;;5514679;26;20822;-67
2024/04/15 06:37:13;;;;;;;18.80;18.00;;;;;;;;;;5508819;26;20517;-67
2024/04/15 06:39:39;;;;;;;17.87;17.17;;;;;;;;;;5499665;26;20829;-67
2024/04/15 06:42:08;;;;;;;18.20;17.50;;;;;;;;;;5517302;26;21013;-67
2024/04/15 06:44:35;;;;;;;17.80;17.10;;;;;;;;;;5499696;26;20611;-67
2024/04/15 06:47:05;;;;;;;17.20;16.50;;;;;;;;;;5490829;26;20483;-68
2024/04/15 06:49:32;;;;;;;16.07;15.47;;;;;;;;;;5503620;25;20593;-68
2024/04/15 06:52:01;;;;;;;15.37;14.87;;;;;;;;;;5496015;26;20474;-68
2024/04/15 06:54:30;;;;;;;15.43;14.93;;;;;;;;;;5503959;25;20477;-68
2024/04/15 06:56:59;;;;;;;15.30;14.80;;;;;;;;;;5515758;26;20480;-68
2024/04/15 06:59:25;;;;;;;15.07;14.57;;;;;;;;;;5498260;26;20490;-67
2024/04/15 07:01:54;;;;;;;14.67;14.17;;;;;;;;;;5505893;25;20858;-68
2024/04/15 07:04:20;;;;;;;14.60;14.10;;;;;;;;;;5503613;26;20541;-68
2024/04/15 07:06:50;;;;;;;14.13;13.63;;;;;;;;;;5498945;26;20556;-68
2024/04/15 07:09:16;;;;;;;13.27;12.87;;;;;;;;;;5500815;26;20610;-68
2024/04/15 07:11:48;;;;;;;12.70;12.30;;;;;;;;;;5508381;26;20542;-68
2024/04/15 07:14:14;;;;;;;13.00;12.60;;;;;;;;;;5508430;25;20476;-67
2024/04/15 07:16:43;;;;;;;13.27;12.87;;;;;;;;;;5501785;25;20982;-68
2024/04/15 07:19:09;;;;;;;12.40;12.00;;;;;;;;;;5498022;25;21058;-68
2024/04/15 07:21:38;;;;;;;11.83;11.53;;;;;;;;;;5513835;26;20481;-70
2024/04/15 07:24:04;;;;;;;10.40;10.20;;;;;;;;;;5508450;26;20480;-68
2024/04/15 07:26:34;;;;;;;10.73;10.47;;;;;;;;;;5498454;26;20543;-68
2024/04/15 07:29:03;;;;;;;10.27;10.07;;;;;;;;;;5490784;25;20550;-68
2024/04/15 07:31:32;;;;;;;10.20;10.00;;;;;;;;;;5482738;25;20533;-69
2024/04/15 07:33:58;;;;;;;9.80;9.60;;;;;;;;;;5486496;25;20478;-67
2024/04/15 07:36:28;;;;;;;11.00;10.70;;;;;;;;;;5495608;25;20922;-68
2024/04/15 07:38:54;;;;;;;11.37;11.07;;;;;;;;;;5496693;25;20473;-68
2024/04/15 07:41:23;;;;;;;11.50;11.20;;;;;;;;;;5496575;25;20480;-68
2024/04/15 07:43:49;;;;;;;11.07;10.77;;;;;;;;;;5493800;25;20552;-68
2024/04/15 07:46:21;;;;;;;11.00;10.70;;;;;;;;;;5500291;25;20526;-68
2024/04/15 07:48:47;;;;;;;11.73;11.43;;;;;;;;;;5500048;25;20866;-68
2024/04/15 07:51:16;;;;;;;12.37;11.97;;;;;;;;;;5491769;25;20568;-68
2024/04/15 07:53:43;;;;;;;12.67;12.27;;;;;;;;;;5503005;25;20515;-68
2024/04/15 07:56:12;;;;;;;13.23;12.83;;;;;;;;;;5494814;25;21051;-68
2024/04/15 07:58:40;;;;;;;13.10;12.70;;;;;;;;;;5499574;25;20554;-68
2024/04/15 08:01:09;;;;;;;13.13;12.73;;;;;;;;;;5497491;25;20602;-69
2024/04/15 08:03:38;;;;;;;13.87;13.40;;;;;;;;;;5501547;25;20531;-68
2024/04/15 08:06:07;;;;;;;13.40;13.00;;;;;;;;;;5503174;25;20636;-68
2024/04/15 08:08:33;;;;;;;13.97;13.47;;;;;;;;;;5500832;25;20501;-68
2024/04/15 08:11:02;;;;;;;14.00;13.50;;;;;;;;;;5494637;25;20483;-68
2024/04/15 08:13:29;;;;;;;14.50;14.00;;;;;;;;;;5489816;25;21034;-69
2024/04/15 08:15:58;;;;;;;14.53;14.03;;;;;;;;;;5497792;25;20599;-68
2024/04/15 08:18:24;;;;;;;14.50;14.00;;;;;;;;;;5500741;25;20601;-69
2024/04/15 08:20:59;;;;;;;15.80;15.20;;;;;;;;;;5497205;25;20795;-68
2024/04/15 08:23:25;;;;;;;15.60;15.00;;;;;;;;;;5490228;25;20953;-68
2024/04/15 08:25:54;;;;;;;15.53;14.93;;;;;;;;;;5493274;25;20480;-68
2024/04/15 08:28:21;;;;;;;15.07;14.57;;;;;;;;;;5496716;25;20556;-68
2024/04/15 08:30:50;;;;;;;14.80;14.30;;;;;;;;;;5494705;25;20545;-68
2024/04/15 08:33:16;;;;;;;15.97;15.37;;;;;;;;;;5499763;25;20525;-68
2024/04/15 08:35:45;;;;;;;15.90;15.30;;;;;;;;;;5497872;25;20471;-68
2024/04/15 08:38:14;;;;;;;15.63;15.03;;;;;;;;;;5497740;25;20531;-68
2024/04/15 08:40:48;;;;;;;15.67;15.07;;;;;;;;;;5499470;25;20484;-68
2024/04/15 08:43:19;;;;;;;15.70;15.10;;;;;;;;;;5483736;25;20543;-68
2024/04/15 08:45:49;;;;;;;15.40;14.83;;;;;;;;;;5496536;25;20467;-69
2024/04/15 08:48:15;;;;;;;15.53;14.93;;;;;;;;;;5494904;25;20538;-68
2024/04/15 08:50:44;;;;;;;15.80;15.20;;;;;;;;;;5502646;25;20825;-69
2024/04/15 08:53:11;;;;;;;15.90;15.30;;;;;;;;;;5501850;25;21346;-68
2024/04/15 08:55:43;;;;;;;15.50;14.90;;;;;;;;;;5495793;25;20481;-68
2024/04/15 08:58:11;;;;;;;15.80;15.20;;;;;;;;;;5494456;25;21050;-69
2024/04/15 09:00:41;;;;;;;15.10;14.60;;;;;;;;;;5493816;25;21099;-68
2024/04/15 09:03:07;;;;;;;16.30;15.70;;;;;;;;;;5499483;25;20472;-68
2024/04/15 09:05:37;;;;;;;16.30;15.70;;;;;;;;;;5499606;25;21199;-68
2024/04/15 09:08:04;;;;;;;16.10;15.50;;;;;;;;;;5496865;25;20484;-68
2024/04/15 09:10:33;;;;;;;16.17;15.57;;;;;;;;;;5488992;25;20536;-68
2024/04/15 09:13:02;;;;;;;16.30;15.70;;;;;;;;;;5501471;25;21164;-68
2024/04/15 09:15:31;;;;;;;16.10;15.50;;;;;;;;;;5491765;25;20877;-69
2024/04/15 09:17:58;;;;;;;15.60;15.00;;;;;;;;;;5498900;25;20487;-69
2024/04/15 09:20:27;;;;;;;16.03;15.43;;;;;;;;;;5500488;25;20490;-69
2024/04/15 09:22:53;;;;;;;15.90;15.30;;;;;;;;;;5489492;25;20636;-69
2024/04/15 09:25:22;;;;;;;16.63;15.93;;;;;;;;;;5498445;25;20524;-69
2024/04/15 09:27:48;;;;;;;16.30;15.70;;;;;;;;;;5493071;25;20486;-68
2024/04/15 09:30:20;;;;;;;16.03;15.43;;;;;;;;;;5494793;25;20538;-69
2024/04/15 09:32:46;;;;;;;16.70;16.00;;;;;;;;;;5493017;25;20552;-68
2024/04/15 09:35:15;;;;;;;16.50;15.80;;;;;;;;;;5496728;25;20886;-69
2024/04/15 09:37:42;;;;;;;15.87;15.27;;;;;;;;;;5493842;25;20575;-70
2024/04/15 09:40:16;;;;;;;17.10;16.40;;;;;;;;;;5497297;25;20567;-69
2024/04/15 09:42:43;;;;;;;16.10;15.50;;;;;;;;;;5494954;25;20475;-69
2024/04/15 09:45:12;;;;;;;17.40;16.70;;;;;;;;;;5492042;25;20473;-69
2024/04/15 09:47:41;;;;;;;16.20;15.60;;;;;;;;;;5495444;25;20561;-69
2024/04/15 09:50:10;;;;;;;16.70;16.00;;;;;;;;;;5499563;25;20478;-69
2024/04/15 09:52:39;;;;;;;16.73;16.03;;;;;;;;;;5497285;25;20577;-69
2024/04/15 09:55:10;;;;;;;16.53;15.93;;;;;;;;;;5496840;25;20484;-69
2024/04/15 09:57:39;;;;;;;16.07;15.47;;;;;;;;;;5489800;25;20542;-68
2024/04/15 10:00:12;;;;;;;16.43;15.83;;;;;;;;;;5490141;25;20559;-68
2024/04/15 10:02:44;;;;;;;15.90;15.30;;;;;;;;;;5493830;25;20539;-68
2024/04/15 10:05:17;;;;;;;16.27;15.67;;;;;;;;;;5501702;25;20532;-69
2024/04/15 10:07:46;;;;;;;17.10;16.40;;;;;;;;;;5500190;25;20516;-68
2024/04/15 10:10:15;;;;;;;16.60;16.00;;;;;;;;;;5492487;25;20615;-68
2024/04/15 10:12:42;;;;;;;16.30;15.70;;;;;;;;;;5490046;25;20565;-68
2024/04/15 10:15:11;;;;;;;16.17;15.57;;;;;;;;;;5499081;25;20524;-69
2024/04/15 10:17:37;;;;;;;17.00;16.30;;;;;;;;;;5499394;25;20473;-68
2024/04/15 10:20:16;;;;;;;16.17;15.57;;;;;;;;;;5497464;25;20464;-68
2024/04/15 10:22:43;;;;;;;16.60;16.00;;;;;;;;;;5493998;25;20591;-69
2024/04/15 10:25:12;;;;;;;17.20;16.50;;;;;;;;;;5489418;25;21104;-68
2024/04/15 10:27:38;;;;;;;17.30;16.60;;;;;;;;;;5492089;25;20483;-68
2024/04/15 10:30:14;;;;;;;16.53;15.93;;;;;;;;;;5502290;25;20540;-69
2024/04/15 10:32:43;;;;;;;16.17;15.57;;;;;;;;;;5491948;25;20453;-67
2024/04/15 10:35:25;;;;;;;16.20;15.60;;;;;;;;;;5487678;25;20547;-68
2024/04/15 10:37:52;;;;;;;16.93;16.30;;;;;;;;;;5490183;25;20470;-68
2024/04/15 10:40:22;;;;;;;16.47;15.87;;;;;;;;;;5503315;25;20475;-68
2024/04/15 10:42:48;;;;;;;16.63;16.03;;;;;;;;;;5488585;25;20478;-68
2024/04/15 10:45:20;;;;;;;17.40;16.70;;;;;;;;;;5497133;25;20482;-68
2024/04/15 10:47:46;;;;;;;15.93;15.33;;;;;;;;;;5499093;25;20513;-68
2024/04/15 10:50:15;;;;;;;16.20;15.60;;;;;;;;;;5487509;25;20467;-68
2024/04/15 10:52:44;;;;;;;16.67;16.07;;;;;;;;;;5484963;25;20801;-69
2024/04/15 10:55:13;;;;;;;16.07;15.47;;;;;;;;;;5493981;25;20519;-69
2024/04/15 10:57:41;;;;;;;16.00;15.40;;;;;;;;;;5490559;25;20550;-69
2024/04/15 11:00:12;;;;;;;16.03;15.43;;;;;;;;;;5493630;25;20473;-68
2024/04/15 11:02:39;;;;;;;16.17;15.57;;;;;;;;;;5495783;25;20540;-69
2024/04/15 11:05:09;;;;;;;15.90;15.30;;;;;;;;;;5494734;25;20551;-69
2024/04/15 11:07:38;;;;;;;15.50;15.00;;;;;;;;;;5487701;25;20477;-69
2024/04/15 11:10:11;;;;;;;15.50;15.00;;;;;;;;;;5493571;25;20472;-69
2024/04/15 11:12:39;;;;;;;15.27;14.77;;;;;;;;;;5499726;25;20474;-69
2024/04/15 11:15:11;;;;;;;15.40;14.90;;;;;;;;;;5492580;25;20457;-69
2024/04/15 11:17:45;;;;;;;15.13;14.63;;;;;;;;;;5493174;25;20556;-68
2024/04/15 11:20:15;;;;;;;15.80;15.30;;;;;;;;;;5491958;25;20520;-69
2024/04/15 11:22:41;;;;;;;17.03;16.43;;;;;;;;;;5490601;25;20561;-69
2024/04/15 11:25:13;;;;;;;17.40;16.80;;;;;;;;;;5491486;25;20618;-69
2024/04/15 11:27:42;;;;;;;16.80;16.20;;;;;;;;;;5495453;25;20567;-68
2024/04/15 11:30:15;;;;;;;17.43;16.83;;;;;;;;;;5491696;25;20587;-69
2024/04/15 11:32:42;;;;;;;16.70;16.10;;;;;;;;;;5494980;25;20543;-68
2024/04/15 11:35:12;;;;;;;17.53;16.83;;;;;;;;;;5490988;25;20529;-69
2024/04/15 11:37:39;;;;;;;16.93;16.33;;;;;;;;;;5492602;25;20499;-68
2024/04/15 11:40:08;;;;;;;17.37;16.67;;;;;;;;;;5494927;25;20611;-68
2024/04/15 11:42:38;;;;;;;17.10;16.43;;;;;;;;;;5497887;25;20546;-68
2024/04/15 11:45:08;;;;;;;17.10;16.40;;;;;;;;;;5497504;25;20719;-69
2024/04/15 11:47:34;;;;;;;16.90;16.30;;;;;;;;;;5489049;25;20485;-68
2024/04/15 11:50:04;;;;;;;17.20;16.50;;;;;;;;;;5489930;25;21035;-68
2024/04/15 11:52:30;;;;;;;17.30;16.60;;;;;;;;;;5492733;25;20478;-69
2024/04/15 11:54:59;;;;;;;16.47;15.87;;;;;;;;;;5498006;25;20480;-68
2024/04/15 11:57:25;;;;;;;17.10;16.40;;;;;;;;;;5492542;25;20556;-68
2024/04/15 11:59:58;;;;;;;15.60;15.00;;;;;;;;;;5497945;25;20549;-67
2024/04/15 12:02:25;;;;;;;16.27;15.67;;;;;;;;;;5495507;25;20841;-68
2024/04/15 12:04:54;;;;;;;16.37;15.77;;;;;;;;;;5494967;25;20466;-68
2024/04/15 12:07:22;;;;;;;15.80;15.20;;;;;;;;;;5494737;25;21025;-68
2024/04/15 12:09:52;;;;;;;16.50;15.90;;;;;;;;;;5488692;25;20585;-68
2024/04/15 12:12:18;;;;;;;16.27;15.67;;;;;;;;;;5500789;25;20531;-69
2024/04/15 12:14:47;;;;;;;16.33;15.73;;;;;;;;;;5505021;26;20557;-68
2024/04/15 12:17:16;;;;;;;15.90;15.30;;;;;;;;;;5506801;25;20585;-67
2024/04/15 12:19:44;;;;;;;15.97;15.37;;;;;;;;;;5488719;26;20481;-69
2024/04/15 12:22:11;;;;;;;16.77;16.17;;;;;;;;;;5503027;26;20548;-67
2024/04/15 12:24:40;;;;;;;19.27;18.37;;;;;;;;;;5500138;26;20589;-68
2024/04/15 12:27:07;;;;;;;19.87;18.97;;;;;;;;;;5504415;26;20460;-68
2024/04/15 12:29:36;;;;;;;20.40;19.40;;;;;;;;;;5508394;26;20577;-68
2024/04/15 12:32:02;;;;;;;17.33;16.63;;;;;;;;;;5493527;26;20484;-67
2024/04/15 12:34:35;;;;;;;16.13;15.53;;;;;;;;;;5500204;26;20513;-68
2024/04/15 12:37:01;;;;;;;16.50;15.90;;;;;;;;;;5510461;26;20524;-68
2024/04/15 12:39:30;;;;;;;16.20;15.60;;;;;;;;;;5517211;25;20463;-69
2024/04/15 12:41:57;;;;;;;16.60;16.00;;;;;;;;;;5508132;25;20601;-68
2024/04/15 12:44:26;;;;;;;16.20;15.60;;;;;;;;;;5516263;25;20468;-69
2024/04/15 12:46:57;;;;;;;15.37;14.87;;;;;;;;;;5508959;26;20472;-69
2024/04/15 12:49:23;;;;;;;15.40;14.90;;;;;;;;;;5496576;25;20953;-69
2024/04/15 12:51:55;;;;;;;15.47;14.97;;;;;;;;;;5518832;25;20887;-67
2024/04/15 12:54:21;;;;;;;15.87;15.27;;;;;;;;;;5500272;26;20493;-68
2024/04/15 12:56:50;;;;;;;16.33;15.73;;;;;;;;;;5499175;26;20588;-67
2024/04/15 12:59:17;;;;;;;16.50;15.90;;;;;;;;;;5506372;25;20472;-67
2024/04/15 13:01:47;;;;;;;16.60;16.00;;;;;;;;;;5519057;26;20510;-68
2024/04/15 13:04:13;;;;;;;16.03;15.43;;;;;;;;;;5509005;26;20901;-68
2024/04/15 13:06:42;;;;;;;16.90;16.23;;;;;;;;;;5491007;25;21007;-68
2024/04/15 13:09:11;;;;;;;15.87;15.27;;;;;;;;;;5489756;25;20496;-69
2024/04/15 13:11:40;;;;;;;16.10;15.50;;;;;;;;;;5504773;25;20476;-68
2024/04/15 13:14:07;;;;;;;17.10;16.50;;;;;;;;;;5500347;26;20485;-69
2024/04/15 13:16:36;;;;;;;17.50;16.80;;;;;;;;;;5491349;25;20469;-68
2024/04/15 13:19:02;;;;;;;16.93;16.30;;;;;;;;;;5503253;26;21010;-68
2024/04/15 13:21:31;;;;;;;16.70;16.10;;;;;;;;;;5494053;26;20527;-68
2024/04/15 13:23:58;;;;;;;17.37;16.67;;;;;;;;;;5488762;25;20578;-67
2024/04/15 13:26:29;;;;;;;16.50;15.90;;;;;;;;;;5484926;25;20458;-69
2024/04/15 13:28:55;;;;;;;16.23;15.63;;;;;;;;;;5497110;25;20869;-69
2024/04/15 13:31:25;;;;;;;16.40;15.80;;;;;;;;;;5494425;25;20464;-69
2024/04/15 13:33:51;;;;;;;16.30;15.70;;;;;;;;;;5497368;25;21031;-69
2024/04/15 13:36:21;;;;;;;15.67;15.17;;;;;;;;;;5487916;25;20530;-69
2024/04/15 13:38:48;;;;;;;15.40;14.90;;;;;;;;;;5489840;25;20482;-69
2024/04/15 13:41:17;;;;;;;15.80;15.20;;;;;;;;;;5490269;25;20602;-69
2024/04/15 13:43:46;;;;;;;20.23;19.13;;;;;;;;;;5500349;25;21011;-68
2024/04/15 13:46:15;;;;;;;20.30;19.20;;;;;;;;;;5498373;25;21076;-67
2024/04/15 13:48:42;;;;;;;19.37;18.37;;;;;;;;;;5494319;25;20518;-68
2024/04/15 13:51:11;;;;;;;18.20;17.30;;;;;;;;;;5497052;25;20481;-69
2024/04/15 13:53:37;;;;;;;18.30;17.40;;;;;;;;;;5495475;25;21056;-68
2024/04/15 13:56:06;;;;;;;18.33;17.53;;;;;;;;;;5489932;25;20900;-68
2024/04/15 13:58:33;;;;;;;16.27;15.67;;;;;;;;;;5495539;25;20612;-68
2024/04/15 14:01:04;;;;;;;15.30;14.80;;;;;;;;;;5497909;25;20533;-68
2024/04/15 14:03:31;;;;;;;15.50;15.00;;;;;;;;;;5495834;25;20542;-68
2024/04/15 14:05:59;;;;;;;15.17;14.67;;;;;;;;;;5492399;25;20510;-69
2024/04/15 14:08:26;;;;;;;14.53;14.03;;;;;;;;;;5499717;25;20486;-68
2024/04/15 14:10:55;;;;;;;15.77;15.17;;;;;;;;;;5496790;25;20481;-68
2024/04/15 14:13:22;;;;;;;17.67;16.97;;;;;;;;;;5488046;25;20470;-68
2024/04/15 14:15:51;;;;;;;21.73;20.63;;;;;;;;;;5496791;25;20534;-68
2024/04/15 14:18:20;;;;;;;20.97;19.97;;;;;;;;;;5492088;25;20484;-69
2024/04/15 14:20:49;;;;;;;25.30;23.70;;;;;;;;;;5497561;25;20812;-67
2024/04/15 14:23:15;;;;;;;25.87;23.97;;;;;;;;;;5496928;25;20492;-68